RJAN(METAR)
08/14 17:00
RJAN 140800Z 07002KT CAVOK 30/24 Q1008 RMK A2978=
戻る
トップページへ戻る
IMOC Co,.Ltd.